createdAt,value
2018-06-05T00:01:23.143Z,10.30
2018-06-05T00:03:51.400Z,10.27
2018-06-05T00:06:19.640Z,10.37
2018-06-05T00:08:47.857Z,8.70
2018-06-05T00:11:16.091Z,11.50
2018-06-05T00:13:44.754Z,12.50
2018-06-05T00:16:13.453Z,9.90
2018-06-05T00:18:41.673Z,11.23
2018-06-05T00:21:09.904Z,10.97
2018-06-05T00:23:38.220Z,11.50
2018-06-05T00:26:06.527Z,12.30
2018-06-05T00:28:34.798Z,11.10
2018-06-05T00:31:03.081Z,11.53
2018-06-05T00:33:31.391Z,12.20
2018-06-05T00:35:59.589Z,11.13
2018-06-05T00:38:27.979Z,12.63
2018-06-05T00:40:56.350Z,12.30
2018-06-05T00:43:24.607Z,13.30
2018-06-05T00:45:52.845Z,10.67
2018-06-05T00:48:21.113Z,11.77
2018-06-05T00:50:49.622Z,12.97
2018-06-05T00:53:17.858Z,13.40
2018-06-05T00:55:46.151Z,12.30
2018-06-05T00:58:14.404Z,12.07
2018-06-05T01:00:42.704Z,15.30
2018-06-05T01:03:11.807Z,11.30
2018-06-05T01:05:40.090Z,13.87
2018-06-05T01:08:08.315Z,12.67
2018-06-05T01:10:36.528Z,12.90
2018-06-05T01:13:04.821Z,11.90
2018-06-05T01:15:33.107Z,11.93
2018-06-05T01:18:01.355Z,13.27
2018-06-05T01:20:29.599Z,11.93
2018-06-05T01:22:57.833Z,12.47
2018-06-05T01:25:26.080Z,12.73
2018-06-05T01:27:55.376Z,14.70
2018-06-05T01:30:23.589Z,13.33
2018-06-05T01:32:51.924Z,14.07
2018-06-05T01:35:20.204Z,12.10
2018-06-05T01:37:48.476Z,13.60
2018-06-05T01:40:16.755Z,11.57
2018-06-05T01:42:45.000Z,12.33
2018-06-05T01:45:13.235Z,12.27
2018-06-05T01:47:41.537Z,14.53
2018-06-05T01:50:09.785Z,13.27
2018-06-05T01:52:38.159Z,14.83
2018-06-05T01:55:06.455Z,13.40
2018-06-05T01:57:34.662Z,14.30
2018-06-05T02:00:02.635Z,12.50
2018-06-05T02:02:30.952Z,13.57
2018-06-05T02:04:59.912Z,12.90
2018-06-05T02:07:28.151Z,12.70
2018-06-05T02:09:56.453Z,15.70
2018-06-05T02:12:24.692Z,15.13
2018-06-05T02:14:52.939Z,14.07
2018-06-05T02:17:21.196Z,16.97
2018-06-05T02:19:49.456Z,19.87
2018-06-05T02:22:18.230Z,24.13
2018-06-05T02:24:46.446Z,19.60
2018-06-05T02:27:14.636Z,17.03
2018-06-05T02:29:42.903Z,18.03
2018-06-05T02:32:11.293Z,21.63
2018-06-05T02:34:39.590Z,17.57
2018-06-05T02:37:07.776Z,18.77
2018-06-05T02:39:35.988Z,21.10
2018-06-05T02:42:04.372Z,15.83
2018-06-05T02:44:32.590Z,14.00
2018-06-05T02:47:00.793Z,15.60
2018-06-05T02:49:28.789Z,13.83
2018-06-05T02:51:57.105Z,15.90
2018-06-05T02:54:25.595Z,16.60
2018-06-05T02:56:53.916Z,15.67
2018-06-05T02:59:22.140Z,17.63
2018-06-05T03:01:50.616Z,15.20
2018-06-05T03:04:18.867Z,18.50
2018-06-05T03:06:47.147Z,14.37
2018-06-05T03:09:15.159Z,15.13
2018-06-05T03:11:43.448Z,17.20
2018-06-05T03:14:11.720Z,14.23
2018-06-05T03:16:39.995Z,14.73
2018-06-05T03:19:08.271Z,14.03
2018-06-05T03:21:36.497Z,15.33
2018-06-05T03:24:04.825Z,16.73
2018-06-05T03:26:33.117Z,15.10
2018-06-05T03:29:01.365Z,16.93
2018-06-05T03:31:29.671Z,15.60
2018-06-05T03:33:57.985Z,15.03
2018-06-05T03:36:26.708Z,15.70
2018-06-05T03:38:55.016Z,16.77
2018-06-05T03:41:23.306Z,17.03
2018-06-05T03:43:51.641Z,15.67
2018-06-05T03:46:19.947Z,19.67
2018-06-05T03:48:48.215Z,16.73
2018-06-05T03:51:16.466Z,14.93
2018-06-05T03:53:44.730Z,18.93
2018-06-05T03:56:13.137Z,15.47
2018-06-05T03:58:41.423Z,18.50
2018-06-05T04:01:09.687Z,17.37
2018-06-05T04:03:37.942Z,17.53
2018-06-05T04:06:06.192Z,19.67
2018-06-05T04:08:34.456Z,19.17
2018-06-05T04:11:02.729Z,17.57
2018-06-05T04:13:31.034Z,19.57
2018-06-05T04:15:59.256Z,15.70
2018-06-05T04:18:27.959Z,18.90
2018-06-05T04:20:56.257Z,19.73
2018-06-05T04:23:24.481Z,19.93
2018-06-05T04:25:53.318Z,18.77
2018-06-05T04:28:21.561Z,17.67
2018-06-05T04:30:49.867Z,19.23
2018-06-05T04:33:18.111Z,18.97
2018-06-05T04:35:46.411Z,17.60
2018-06-05T04:38:14.675Z,17.13
2018-06-05T04:40:42.908Z,20.90
2018-06-05T04:43:11.238Z,19.37
2018-06-05T04:45:39.622Z,17.63
2018-06-05T04:48:07.873Z,20.20
2018-06-05T04:50:36.131Z,21.37
2018-06-05T04:53:04.456Z,18.97
2018-06-05T04:55:32.755Z,18.70
2018-06-05T04:58:01.055Z,19.70
2018-06-05T05:00:29.267Z,18.43
2018-06-05T05:02:57.516Z,22.00
2018-06-05T05:05:25.839Z,18.10
2018-06-05T05:07:53.863Z,19.67
2018-06-05T05:10:22.226Z,20.10
2018-06-05T05:12:51.139Z,18.70
2018-06-05T05:15:19.366Z,19.13
2018-06-05T05:17:47.663Z,18.77
2018-06-05T05:20:16.002Z,17.43
2018-06-05T05:22:44.343Z,21.10
2018-06-05T05:25:13.647Z,21.07
2018-06-05T05:27:41.924Z,19.10
2018-06-05T05:30:10.153Z,20.87
2018-06-05T05:32:38.368Z,21.70
2018-06-05T05:35:06.670Z,21.23
2018-06-05T05:37:35.383Z,19.27
2018-06-05T05:40:03.588Z,21.47
2018-06-05T05:42:33.854Z,19.87
2018-06-05T05:45:02.201Z,19.37
2018-06-05T05:47:30.431Z,17.70
2018-06-05T05:49:58.699Z,20.30
2018-06-05T05:52:26.988Z,17.33
2018-06-05T05:54:55.228Z,18.83
2018-06-05T05:57:23.504Z,16.53
2018-06-05T05:59:51.814Z,21.30
2018-06-05T06:02:20.064Z,21.00
2018-06-05T06:04:48.321Z,17.50
2018-06-05T06:07:16.702Z,15.30
2018-06-05T06:09:47.071Z,17.03
2018-06-05T06:12:15.386Z,22.43
2018-06-05T06:14:44.065Z,18.87
2018-06-05T06:17:12.295Z,17.70
2018-06-05T06:19:40.551Z,19.57
2018-06-05T06:22:08.849Z,20.47
2018-06-05T06:24:37.096Z,20.57
2018-06-05T06:27:05.393Z,21.10
2018-06-05T06:29:33.757Z,16.83
2018-06-05T06:32:01.982Z,18.97
2018-06-05T06:34:30.211Z,18.37
2018-06-05T06:36:58.521Z,20.67
2018-06-05T06:39:26.852Z,22.37
2018-06-05T06:41:55.120Z,17.77
2018-06-05T06:44:23.688Z,17.23
2018-06-05T06:46:51.960Z,22.50
2018-06-05T06:49:20.268Z,17.10
2018-06-05T06:51:48.477Z,20.07
2018-06-05T06:54:16.735Z,18.30
2018-06-05T06:56:45.081Z,20.87
2018-06-05T06:59:13.344Z,19.50
2018-06-05T07:01:41.639Z,19.93
2018-06-05T07:04:09.911Z,20.87
2018-06-05T07:06:38.168Z,20.13
2018-06-05T07:09:08.229Z,28.83
2018-06-05T07:11:37.241Z,19.40
2018-06-05T07:14:05.627Z,20.50
2018-06-05T07:16:33.861Z,19.47
2018-06-05T07:19:02.167Z,15.30
2018-06-05T07:21:30.413Z,23.00
2018-06-05T07:23:58.760Z,18.00
2018-06-05T07:26:27.036Z,18.83
2018-06-05T07:28:55.308Z,18.10
2018-06-05T07:31:23.545Z,20.07
2018-06-05T07:33:52.800Z,17.70
2018-06-05T07:36:21.071Z,17.50
2018-06-05T07:38:49.389Z,17.20
2018-06-05T07:41:17.406Z,22.03
2018-06-05T07:43:45.874Z,17.30
2018-06-05T07:46:14.127Z,18.47
2018-06-05T07:48:42.415Z,20.10
2018-06-05T07:51:10.729Z,20.67
2018-06-05T07:53:38.967Z,17.13
2018-06-05T07:56:07.204Z,17.20
2018-06-05T07:58:35.440Z,14.43
2018-06-05T08:01:03.685Z,17.37
2018-06-05T08:03:31.997Z,17.30
2018-06-05T08:06:00.287Z,15.37
2018-06-05T08:08:28.531Z,17.27
2018-06-05T08:10:56.836Z,16.30
2018-06-05T08:13:25.156Z,18.40
2018-06-05T08:15:54.248Z,14.00
2018-06-05T08:18:22.495Z,15.60
2018-06-05T08:20:50.727Z,18.23
2018-06-05T08:23:19.004Z,18.97
2018-06-05T08:25:47.326Z,22.47
2018-06-05T08:28:15.655Z,20.67
2018-06-05T08:30:44.078Z,15.53
2018-06-05T08:33:12.308Z,19.53
2018-06-05T08:35:40.621Z,14.10
2018-06-05T08:38:08.866Z,17.53
2018-06-05T08:40:37.223Z,16.67
2018-06-05T08:43:05.513Z,15.20
2018-06-05T08:45:33.785Z,16.43
2018-06-05T08:48:02.035Z,15.90
2018-06-05T08:50:30.317Z,15.67
2018-06-05T08:52:58.586Z,15.37
2018-06-05T08:55:26.883Z,15.13
2018-06-05T08:57:55.198Z,17.07
2018-06-05T09:00:23.183Z,14.90
2018-06-05T09:02:51.796Z,16.40
2018-06-05T09:05:20.087Z,15.53
2018-06-05T09:07:48.298Z,15.73
2018-06-05T09:10:16.564Z,17.77
2018-06-05T09:12:44.969Z,17.20
2018-06-05T09:15:13.209Z,18.00
2018-06-05T09:17:41.541Z,17.50
2018-06-05T09:20:09.775Z,16.17
2018-06-05T09:22:38.079Z,19.73
2018-06-05T09:25:06.331Z,16.03
2018-06-05T09:27:34.574Z,15.27
2018-06-05T09:30:02.856Z,13.63
2018-06-05T09:32:31.135Z,15.07
2018-06-05T09:34:59.410Z,16.40
2018-06-05T09:37:27.690Z,18.17
2018-06-05T09:39:55.931Z,14.50
2018-06-05T09:42:24.220Z,15.53
2018-06-05T09:44:53.079Z,13.53
2018-06-05T09:47:21.376Z,14.40
2018-06-05T09:49:49.643Z,15.80
2018-06-05T09:52:17.877Z,15.17
2018-06-05T09:54:46.165Z,14.97
2018-06-05T09:57:14.411Z,14.30
2018-06-05T09:59:42.673Z,14.87
2018-06-05T10:02:10.887Z,16.80
2018-06-05T10:04:39.116Z,14.53
2018-06-05T10:07:07.435Z,15.60
2018-06-05T10:09:35.677Z,20.77
2018-06-05T10:12:03.962Z,13.93
2018-06-05T10:14:32.188Z,14.83
2018-06-05T10:17:00.392Z,15.30
2018-06-05T10:19:28.458Z,14.43
2018-06-05T10:21:56.750Z,14.90
2018-06-05T10:24:25.042Z,13.00
2018-06-05T10:26:53.257Z,14.97
2018-06-05T10:29:21.458Z,14.67
2018-06-05T10:31:49.755Z,13.27
2018-06-05T10:34:18.087Z,13.23
2018-06-05T10:36:46.360Z,13.17
2018-06-05T10:39:14.576Z,11.40
2018-06-05T10:41:42.815Z,12.60
2018-06-05T10:44:11.091Z,12.03
2018-06-05T10:46:39.462Z,13.37
2018-06-05T10:49:07.713Z,13.90
2018-06-05T10:51:36.031Z,18.30
2018-06-05T10:54:04.269Z,13.63
2018-06-05T10:56:32.627Z,12.30
2018-06-05T10:59:00.869Z,13.67
2018-06-05T11:01:28.863Z,13.30
2018-06-05T11:03:58.311Z,12.63
2018-06-05T11:06:26.581Z,13.83
2018-06-05T11:08:54.870Z,14.13
2018-06-05T11:11:23.119Z,14.07
2018-06-05T11:13:51.352Z,13.90
2018-06-05T11:16:19.599Z,16.33
2018-06-05T11:18:47.835Z,14.67
2018-06-05T11:21:16.112Z,13.27
2018-06-05T11:23:44.350Z,13.97
2018-06-05T11:26:12.611Z,13.10
2018-06-05T11:28:40.895Z,13.50
2018-06-05T11:31:09.138Z,13.33
2018-06-05T11:33:37.425Z,13.50
2018-06-05T11:36:05.732Z,12.83
2018-06-05T11:38:33.976Z,14.80
2018-06-05T11:41:02.255Z,12.47
2018-06-05T11:43:30.489Z,12.37
2018-06-05T11:45:58.810Z,13.97
2018-06-05T11:48:27.082Z,11.83
2018-06-05T11:50:55.319Z,12.07
2018-06-05T11:53:23.590Z,11.10
2018-06-05T11:55:52.053Z,12.77
2018-06-05T11:58:20.400Z,14.10
2018-06-05T12:00:48.699Z,12.03
2018-06-05T12:03:16.694Z,11.10
2018-06-05T12:05:45.651Z,10.60
2018-06-05T12:08:13.907Z,10.10
2018-06-05T12:10:42.214Z,9.73
2018-06-05T12:13:10.479Z,10.70
2018-06-05T12:15:38.727Z,11.40
2018-06-05T12:18:07.435Z,11.43
2018-06-05T12:20:35.687Z,11.47
2018-06-05T12:23:04.053Z,10.23
2018-06-05T12:25:32.329Z,10.17
2018-06-05T12:28:00.539Z,10.93
2018-06-05T12:30:28.755Z,9.77
2018-06-05T12:32:57.065Z,9.23
2018-06-05T12:35:25.427Z,10.10
2018-06-05T12:37:53.796Z,9.83
2018-06-05T12:40:22.077Z,8.90
2018-06-05T12:42:50.300Z,8.93
2018-06-05T12:45:18.586Z,7.80
2018-06-05T12:47:46.910Z,9.40
2018-06-05T12:50:15.160Z,8.27
2018-06-05T12:52:43.711Z,9.83
2018-06-05T12:55:12.009Z,8.10
2018-06-05T12:57:40.275Z,11.00
2018-06-05T13:00:08.629Z,7.73
2018-06-05T13:02:36.876Z,8.90
2018-06-05T13:05:05.285Z,10.20
2018-06-05T13:07:33.603Z,8.80
2018-06-05T13:10:01.919Z,8.30
2018-06-05T13:12:30.215Z,8.57
2018-06-05T13:14:58.471Z,9.50
2018-06-05T13:17:26.719Z,8.40
2018-06-05T13:19:54.900Z,9.67
2018-06-05T13:22:23.194Z,10.77
2018-06-05T13:24:51.263Z,9.97
2018-06-05T13:27:19.519Z,9.83
2018-06-05T13:29:47.797Z,12.10
2018-06-05T13:32:16.018Z,9.03
2018-06-05T13:34:44.336Z,9.10
2018-06-05T13:37:12.688Z,8.80
2018-06-05T13:39:40.951Z,8.63
2018-06-05T13:42:09.766Z,8.37
2018-06-05T13:44:38.029Z,8.10
2018-06-05T13:47:06.317Z,7.70
2018-06-05T13:49:34.625Z,8.43
2018-06-05T13:52:02.890Z,8.10
2018-06-05T13:54:31.123Z,11.07
2018-06-05T13:56:59.400Z,8.60
2018-06-05T13:59:27.616Z,8.00
2018-06-05T14:01:55.966Z,8.40
2018-06-05T14:04:24.191Z,8.50
2018-06-05T14:06:52.408Z,7.57
2018-06-05T14:09:20.822Z,10.13
2018-06-05T14:11:49.028Z,7.90
2018-06-05T14:14:17.343Z,7.73
2018-06-05T14:16:45.611Z,7.80
2018-06-05T14:19:13.904Z,6.93
2018-06-05T14:21:42.175Z,6.80
2018-06-05T14:24:10.387Z,7.93
2018-06-05T14:26:38.688Z,8.77
2018-06-05T14:29:06.954Z,8.47
2018-06-05T14:31:35.225Z,6.97
2018-06-05T14:34:04.253Z,8.27
2018-06-05T14:36:32.537Z,7.63
2018-06-05T14:39:00.632Z,8.53
2018-06-05T14:41:28.902Z,6.83
2018-06-05T14:43:57.206Z,8.13
2018-06-05T14:46:25.495Z,6.73
2018-06-05T14:48:53.753Z,8.60
2018-06-05T14:51:22.079Z,8.37
2018-06-05T14:53:50.347Z,6.67
2018-06-05T14:56:18.672Z,7.57
2018-06-05T14:58:46.955Z,7.77
2018-06-05T15:01:17.086Z,8.57
2018-06-05T15:03:45.390Z,7.43
2018-06-05T15:06:13.838Z,7.20
2018-06-05T15:08:42.152Z,6.60
2018-06-05T15:11:10.453Z,7.23
2018-06-05T15:13:38.704Z,8.30
2018-06-05T15:16:06.983Z,7.70
2018-06-05T15:18:35.232Z,7.40
2018-06-05T15:21:03.472Z,6.70
2018-06-05T15:23:31.765Z,6.33
2018-06-05T15:26:00.035Z,7.27
2018-06-05T15:28:28.393Z,7.00
2018-06-05T15:30:56.706Z,11.40
2018-06-05T15:33:24.961Z,7.27
2018-06-05T15:35:53.227Z,6.77
2018-06-05T15:38:21.506Z,6.27
2018-06-05T15:40:49.872Z,7.00
2018-06-05T15:43:18.155Z,7.73
2018-06-05T15:45:46.988Z,6.80
2018-06-05T15:48:15.216Z,6.50
2018-06-05T15:50:43.492Z,6.37
2018-06-05T15:53:12.332Z,7.47
2018-06-05T15:55:40.569Z,6.73
2018-06-05T15:58:08.800Z,7.40
2018-06-05T16:00:37.096Z,7.03
2018-06-05T16:03:05.428Z,7.53
2018-06-05T16:05:33.833Z,6.30
2018-06-05T16:08:02.415Z,8.30
2018-06-05T16:10:31.062Z,6.80
2018-06-05T16:12:59.306Z,6.37
2018-06-05T16:15:27.586Z,6.80
2018-06-05T16:17:55.864Z,6.67
2018-06-05T16:20:24.116Z,8.30
2018-06-05T16:22:52.351Z,6.70
2018-06-05T16:25:20.693Z,7.17
2018-06-05T16:27:48.960Z,7.57
2018-06-05T16:30:17.290Z,7.03
2018-06-05T16:32:45.614Z,5.50
2018-06-05T16:35:13.905Z,7.70
2018-06-05T16:37:42.208Z,15.73
2018-06-05T16:40:11.840Z,7.00
2018-06-05T16:42:40.136Z,6.30
2018-06-05T16:45:08.701Z,6.00
2018-06-05T16:47:36.962Z,6.33
2018-06-05T16:50:05.211Z,6.90
2018-06-05T16:52:33.473Z,5.10
2018-06-05T16:55:01.824Z,6.03
2018-06-05T16:57:30.112Z,6.20
2018-06-05T16:59:58.408Z,7.27
2018-06-05T17:02:26.694Z,7.70
2018-06-05T17:04:54.930Z,6.13
2018-06-05T17:07:23.226Z,6.87
2018-06-05T17:09:51.560Z,5.20
2018-06-05T17:12:19.887Z,6.00
2018-06-05T17:14:48.105Z,5.17
2018-06-05T17:17:16.395Z,5.53
2018-06-05T17:19:44.755Z,5.77
2018-06-05T17:22:12.973Z,6.70
2018-06-05T17:24:41.249Z,5.80
2018-06-05T17:27:09.558Z,5.03
2018-06-05T17:29:37.868Z,4.40
2018-06-05T17:32:06.184Z,5.50
2018-06-05T17:34:34.460Z,4.60
2018-06-05T17:37:02.771Z,5.53
2018-06-05T17:39:31.056Z,5.47
2018-06-05T17:41:59.369Z,4.90
2018-06-05T17:44:27.708Z,4.77
2018-06-05T17:46:55.994Z,4.27
2018-06-05T17:49:24.243Z,6.10
2018-06-05T17:51:52.528Z,11.47
2018-06-05T17:54:20.852Z,20.67
2018-06-05T17:56:49.221Z,7.17
2018-06-05T17:59:17.490Z,4.57
2018-06-05T18:01:45.767Z,4.57
2018-06-05T18:04:14.036Z,5.30
2018-06-05T18:06:42.312Z,5.57
2018-06-05T18:09:10.604Z,4.90
2018-06-05T18:11:38.841Z,5.13
2018-06-05T18:14:07.099Z,4.50
2018-06-05T18:16:35.408Z,6.10
2018-06-05T18:19:03.667Z,5.30
2018-06-05T18:21:32.085Z,5.40
2018-06-05T18:24:00.330Z,9.77
2018-06-05T18:26:29.388Z,5.17
2018-06-05T18:28:57.693Z,4.77
2018-06-05T18:31:25.998Z,6.43
2018-06-05T18:33:54.319Z,6.03
2018-06-05T18:36:22.571Z,5.60
2018-06-05T18:38:50.854Z,5.30
2018-06-05T18:41:19.108Z,6.37
2018-06-05T18:43:47.433Z,6.90
2018-06-05T18:46:15.795Z,8.83
2018-06-05T18:48:44.059Z,6.90
2018-06-05T18:51:12.371Z,5.20
2018-06-05T18:53:40.632Z,6.63
2018-06-05T18:56:08.873Z,6.07
2018-06-05T18:58:37.187Z,4.70
2018-06-05T19:01:05.508Z,5.73
2018-06-05T19:03:33.768Z,7.97
2018-06-05T19:06:02.032Z,4.57
2018-06-05T19:08:31.480Z,5.20
2018-06-05T19:10:59.845Z,6.30
2018-06-05T19:13:28.126Z,6.60
2018-06-05T19:15:56.330Z,7.83
2018-06-05T19:18:24.584Z,5.70
2018-06-05T19:20:52.868Z,5.23
2018-06-05T19:23:21.217Z,5.00
2018-06-05T19:25:49.503Z,7.43
2018-06-05T19:28:17.806Z,5.43
2018-06-05T19:30:46.846Z,7.73
2018-06-05T19:33:15.093Z,9.40
2018-06-05T19:35:43.475Z,26.47
2018-06-05T19:38:11.823Z,29.83
2018-06-05T19:40:40.133Z,19.10
2018-06-05T19:43:08.429Z,11.87
2018-06-05T19:45:36.749Z,8.50
2018-06-05T19:48:05.108Z,9.40
2018-06-05T19:50:33.465Z,10.77
2018-06-05T19:53:01.781Z,8.53
2018-06-05T19:55:30.039Z,7.53
2018-06-05T19:57:58.924Z,8.73
2018-06-05T20:00:27.244Z,8.77
2018-06-05T20:02:55.506Z,7.73
2018-06-05T20:05:23.765Z,8.10
2018-06-05T20:07:51.998Z,9.17
2018-06-05T20:10:20.200Z,7.23
2018-06-05T20:12:49.605Z,10.50
2018-06-05T20:15:17.874Z,9.60
2018-06-05T20:17:46.113Z,8.57
2018-06-05T20:20:14.409Z,8.33
2018-06-05T20:22:42.731Z,9.03
2018-06-05T20:25:11.056Z,8.63
2018-06-05T20:27:39.325Z,7.63
2018-06-05T20:30:07.663Z,10.10
2018-06-05T20:32:35.908Z,12.33
2018-06-05T20:35:04.437Z,9.17
2018-06-05T20:37:32.878Z,15.43
2018-06-05T20:40:01.114Z,10.80
2018-06-05T20:42:29.355Z,10.63
2018-06-05T20:44:57.667Z,14.20
2018-06-05T20:47:25.972Z,9.87
2018-06-05T20:49:54.302Z,11.67
2018-06-05T20:52:22.547Z,13.83
2018-06-05T20:54:51.142Z,11.70
2018-06-05T20:57:19.387Z,11.23
2018-06-05T20:59:47.714Z,11.20
2018-06-05T21:02:16.112Z,15.80
2018-06-05T21:04:44.450Z,13.93
2018-06-05T21:07:12.868Z,12.33
2018-06-05T21:09:41.205Z,12.80
2018-06-05T21:12:09.499Z,11.73
2018-06-05T21:14:37.857Z,11.47
2018-06-05T21:17:06.203Z,11.53
2018-06-05T21:19:34.431Z,16.33
2018-06-05T21:22:02.748Z,11.43
2018-06-05T21:24:31.048Z,24.43
2018-06-05T21:26:59.466Z,19.73
2018-06-05T21:29:27.691Z,22.40
2018-06-05T21:31:55.994Z,38.50
2018-06-05T21:34:24.276Z,26.53
2018-06-05T21:36:52.548Z,18.00
2018-06-05T21:39:20.931Z,16.80
2018-06-05T21:41:49.229Z,14.20
2018-06-05T21:44:17.517Z,13.63
2018-06-05T21:46:45.831Z,12.50
2018-06-05T21:49:14.207Z,13.20
2018-06-05T21:51:42.601Z,12.00
2018-06-05T21:54:11.456Z,14.10
2018-06-05T21:56:39.769Z,11.97
2018-06-05T21:59:08.060Z,10.37
2018-06-05T22:01:36.384Z,12.37
2018-06-05T22:04:06.483Z,11.50
2018-06-05T22:06:34.771Z,12.20
2018-06-05T22:09:03.420Z,12.80
2018-06-05T22:11:31.723Z,12.93
2018-06-05T22:14:00.148Z,12.73
2018-06-05T22:16:28.500Z,14.77
2018-06-05T22:18:56.735Z,16.10
2018-06-05T22:21:25.128Z,12.20
2018-06-05T22:23:53.397Z,12.63
2018-06-05T22:26:21.639Z,13.37
2018-06-05T22:28:50.014Z,12.97
2018-06-05T22:31:18.233Z,12.60
2018-06-05T22:33:46.540Z,13.40
2018-06-05T22:36:14.876Z,14.90
2018-06-05T22:38:43.104Z,12.43
2018-06-05T22:41:11.404Z,12.90
2018-06-05T22:43:39.767Z,11.50
2018-06-05T22:46:08.093Z,14.50
2018-06-05T22:48:36.425Z,14.20
2018-06-05T22:51:05.558Z,13.57
2018-06-05T22:53:33.916Z,13.53
2018-06-05T22:56:02.150Z,15.13
2018-06-05T22:58:30.461Z,14.57
2018-06-05T23:00:58.879Z,17.23
2018-06-05T23:03:27.619Z,14.33
2018-06-05T23:05:56.075Z,14.77
2018-06-05T23:08:24.420Z,16.80
2018-06-05T23:10:52.690Z,14.93
2018-06-05T23:13:20.992Z,13.80
2018-06-05T23:15:49.319Z,13.23
2018-06-05T23:18:18.168Z,13.93
2018-06-05T23:20:46.478Z,13.73
2018-06-05T23:23:14.894Z,15.40
2018-06-05T23:25:43.158Z,14.07
2018-06-05T23:28:11.427Z,15.20
2018-06-05T23:30:39.729Z,15.30
2018-06-05T23:33:08.010Z,14.60
2018-06-05T23:35:36.250Z,17.27
2018-06-05T23:38:04.636Z,13.87
2018-06-05T23:40:32.949Z,16.23
2018-06-05T23:43:01.287Z,13.73
2018-06-05T23:45:29.576Z,14.10
2018-06-05T23:47:57.850Z,14.57
2018-06-05T23:50:26.120Z,16.83
2018-06-05T23:52:55.044Z,15.10
2018-06-05T23:55:23.103Z,14.93
2018-06-05T23:57:51.383Z,13.10
